sensor_id;sensor_type;location;lat;lon;timestamp;temperature;humidity
49224;DHT22;35050;51.316;5.994;2023-08-07T00:00:21;13.80;99.90
49224;DHT22;35050;51.316;5.994;2023-08-07T00:02:47;13.90;99.90
49224;DHT22;35050;51.316;5.994;2023-08-07T00:05:13;13.90;99.90
49224;DHT22;35050;51.316;5.994;2023-08-07T00:07:39;13.90;99.90
49224;DHT22;35050;51.316;5.994;2023-08-07T00:10:05;13.90;99.90
49224;DHT22;35050;51.316;5.994;2023-08-07T00:12:31;13.90;99.90
49224;DHT22;35050;51.316;5.994;2023-08-07T00:14:56;13.90;99.90
49224;DHT22;35050;51.316;5.994;2023-08-07T00:17:22;13.90;99.90
49224;DHT22;35050;51.316;5.994;2023-08-07T00:19:47;13.90;99.90
49224;DHT22;35050;51.316;5.994;2023-08-07T00:22:13;13.90;99.90
49224;DHT22;35050;51.316;5.994;2023-08-07T00:24:39;13.90;99.90
49224;DHT22;35050;51.316;5.994;2023-08-07T00:27:05;14.00;99.90
49224;DHT22;35050;51.316;5.994;2023-08-07T00:29:32;14.00;99.90
49224;DHT22;35050;51.316;5.994;2023-08-07T00:31:58;13.90;99.90
49224;DHT22;35050;51.316;5.994;2023-08-07T00:34:23;14.00;99.90
49224;DHT22;35050;51.316;5.994;2023-08-07T00:36:49;14.00;99.90
49224;DHT22;35050;51.316;5.994;2023-08-07T00:39:15;14.10;99.90
49224;DHT22;35050;51.316;5.994;2023-08-07T00:41:41;14.00;99.90
49224;DHT22;35050;51.316;5.994;2023-08-07T00:44:06;14.00;99.90
49224;DHT22;35050;51.316;5.994;2023-08-07T00:46:32;14.00;99.90
49224;DHT22;35050;51.316;5.994;2023-08-07T00:48:58;14.00;99.90
49224;DHT22;35050;51.316;5.994;2023-08-07T00:51:24;13.90;99.90
49224;DHT22;35050;51.316;5.994;2023-08-07T00:53:50;13.90;99.90
49224;DHT22;35050;51.316;5.994;2023-08-07T00:56:16;13.90;99.90
49224;DHT22;35050;51.316;5.994;2023-08-07T00:58:42;13.80;99.90
49224;DHT22;35050;51.316;5.994;2023-08-07T01:01:08;13.90;99.90
49224;DHT22;35050;51.316;5.994;2023-08-07T01:03:34;13.90;99.90
49224;DHT22;35050;51.316;5.994;2023-08-07T01:06:00;13.80;99.90
49224;DHT22;35050;51.316;5.994;2023-08-07T01:08:26;13.80;99.90
49224;DHT22;35050;51.316;5.994;2023-08-07T01:14:13;13.80;99.90
49224;DHT22;35050;51.316;5.994;2023-08-07T01:16:45;13.80;99.90
49224;DHT22;35050;51.316;5.994;2023-08-07T01:19:22;13.80;99.90
49224;DHT22;35050;51.316;5.994;2023-08-07T01:21:49;13.70;99.90
49224;DHT22;35050;51.316;5.994;2023-08-07T01:24:15;13.70;99.90
49224;DHT22;35050;51.316;5.994;2023-08-07T01:26:43;13.80;99.90
49224;DHT22;35050;51.316;5.994;2023-08-07T01:29:17;13.70;99.90
49224;DHT22;35050;51.316;5.994;2023-08-07T01:31:49;13.80;99.90
49224;DHT22;35050;51.316;5.994;2023-08-07T01:34:18;13.70;99.90
49224;DHT22;35050;51.316;5.994;2023-08-07T01:36:47;13.70;99.90
49224;DHT22;35050;51.316;5.994;2023-08-07T01:39:14;13.80;99.90
49224;DHT22;35050;51.316;5.994;2023-08-07T01:41:40;13.70;99.90
49224;DHT22;35050;51.316;5.994;2023-08-07T01:44:06;13.70;99.90
49224;DHT22;35050;51.316;5.994;2023-08-07T01:46:32;13.60;99.90
49224;DHT22;35050;51.316;5.994;2023-08-07T01:48:57;13.70;99.90
49224;DHT22;35050;51.316;5.994;2023-08-07T01:51:23;13.70;99.90
49224;DHT22;35050;51.316;5.994;2023-08-07T01:53:49;13.70;99.90
49224;DHT22;35050;51.316;5.994;2023-08-07T01:56:14;13.70;99.90
49224;DHT22;35050;51.316;5.994;2023-08-07T01:58:40;13.70;99.90
49224;DHT22;35050;51.316;5.994;2023-08-07T02:01:05;13.70;99.90
49224;DHT22;35050;51.316;5.994;2023-08-07T02:03:31;13.70;99.90
49224;DHT22;35050;51.316;5.994;2023-08-07T02:05:57;13.70;99.90
49224;DHT22;35050;51.316;5.994;2023-08-07T02:08:22;13.70;99.90
49224;DHT22;35050;51.316;5.994;2023-08-07T02:10:48;13.80;99.90
49224;DHT22;35050;51.316;5.994;2023-08-07T02:13:13;13.70;99.90
49224;DHT22;35050;51.316;5.994;2023-08-07T02:15:39;13.70;99.90
49224;DHT22;35050;51.316;5.994;2023-08-07T02:18:05;13.70;99.90
49224;DHT22;35050;51.316;5.994;2023-08-07T02:20:31;13.80;99.90
49224;DHT22;35050;51.316;5.994;2023-08-07T02:22:56;13.70;99.90
49224;DHT22;35050;51.316;5.994;2023-08-07T02:25:22;13.70;99.90
49224;DHT22;35050;51.316;5.994;2023-08-07T02:27:48;13.70;99.90
49224;DHT22;35050;51.316;5.994;2023-08-07T02:30:13;13.70;99.90
49224;DHT22;35050;51.316;5.994;2023-08-07T02:32:39;13.60;99.90
49224;DHT22;35050;51.316;5.994;2023-08-07T02:35:07;13.60;99.90
49224;DHT22;35050;51.316;5.994;2023-08-07T02:37:33;13.60;99.90
49224;DHT22;35050;51.316;5.994;2023-08-07T02:39:59;13.60;99.90
49224;DHT22;35050;51.316;5.994;2023-08-07T02:42:24;13.60;99.90
49224;DHT22;35050;51.316;5.994;2023-08-07T02:44:50;13.60;99.90
49224;DHT22;35050;51.316;5.994;2023-08-07T02:47:16;13.60;99.90
49224;DHT22;35050;51.316;5.994;2023-08-07T02:49:41;13.60;99.90
49224;DHT22;35050;51.316;5.994;2023-08-07T02:52:07;13.50;99.90
49224;DHT22;35050;51.316;5.994;2023-08-07T02:54:33;13.60;99.90
49224;DHT22;35050;51.316;5.994;2023-08-07T02:56:58;13.60;99.90
49224;DHT22;35050;51.316;5.994;2023-08-07T02:59:24;13.50;99.90
49224;DHT22;35050;51.316;5.994;2023-08-07T03:01:50;13.50;99.90
49224;DHT22;35050;51.316;5.994;2023-08-07T03:04:15;13.60;99.90
49224;DHT22;35050;51.316;5.994;2023-08-07T03:06:41;13.50;99.90
49224;DHT22;35050;51.316;5.994;2023-08-07T03:09:07;13.50;99.90
49224;DHT22;35050;51.316;5.994;2023-08-07T03:11:32;13.50;99.90
49224;DHT22;35050;51.316;5.994;2023-08-07T03:13:58;13.50;99.90
49224;DHT22;35050;51.316;5.994;2023-08-07T03:16:24;13.60;99.90
49224;DHT22;35050;51.316;5.994;2023-08-07T03:18:49;13.60;99.90
49224;DHT22;35050;51.316;5.994;2023-08-07T03:21:15;13.60;99.90
49224;DHT22;35050;51.316;5.994;2023-08-07T03:23:41;13.60;99.90
49224;DHT22;35050;51.316;5.994;2023-08-07T03:26:08;13.50;99.90
49224;DHT22;35050;51.316;5.994;2023-08-07T03:28:35;13.60;99.90
49224;DHT22;35050;51.316;5.994;2023-08-07T03:31:01;13.60;99.90
49224;DHT22;35050;51.316;5.994;2023-08-07T03:33:26;13.60;99.90
49224;DHT22;35050;51.316;5.994;2023-08-07T03:35:52;13.60;99.90
49224;DHT22;35050;51.316;5.994;2023-08-07T03:38:18;13.50;99.90
49224;DHT22;35050;51.316;5.994;2023-08-07T03:40:44;13.50;99.90
49224;DHT22;35050;51.316;5.994;2023-08-07T03:43:09;13.60;99.90
49224;DHT22;35050;51.316;5.994;2023-08-07T03:45:35;13.60;99.90
49224;DHT22;35050;51.316;5.994;2023-08-07T03:48:01;13.60;99.90
49224;DHT22;35050;51.316;5.994;2023-08-07T03:50:26;13.60;99.90
49224;DHT22;35050;51.316;5.994;2023-08-07T03:52:52;13.70;99.90
49224;DHT22;35050;51.316;5.994;2023-08-07T03:55:18;13.60;99.90
49224;DHT22;35050;51.316;5.994;2023-08-07T03:57:44;13.40;99.90
49224;DHT22;35050;51.316;5.994;2023-08-07T04:00:10;13.40;99.90
49224;DHT22;35050;51.316;5.994;2023-08-07T04:02:35;13.50;99.90
49224;DHT22;35050;51.316;5.994;2023-08-07T04:05:01;13.50;99.90
49224;DHT22;35050;51.316;5.994;2023-08-07T04:07:27;13.40;99.90
49224;DHT22;35050;51.316;5.994;2023-08-07T04:09:53;13.50;99.90
49224;DHT22;35050;51.316;5.994;2023-08-07T04:12:18;13.50;99.90
49224;DHT22;35050;51.316;5.994;2023-08-07T04:14:44;13.50;99.90
49224;DHT22;35050;51.316;5.994;2023-08-07T04:17:10;13.40;99.90
49224;DHT22;35050;51.316;5.994;2023-08-07T04:19:36;13.50;99.90
49224;DHT22;35050;51.316;5.994;2023-08-07T04:22:02;13.50;99.90
49224;DHT22;35050;51.316;5.994;2023-08-07T04:24:28;13.50;99.90
49224;DHT22;35050;51.316;5.994;2023-08-07T04:26:53;13.60;99.90
49224;DHT22;35050;51.316;5.994;2023-08-07T04:29:19;13.50;99.90
49224;DHT22;35050;51.316;5.994;2023-08-07T04:31:44;13.50;99.90
49224;DHT22;35050;51.316;5.994;2023-08-07T04:34:10;13.50;99.90
49224;DHT22;35050;51.316;5.994;2023-08-07T04:36:36;13.50;99.90
49224;DHT22;35050;51.316;5.994;2023-08-07T04:39:01;13.60;99.90
49224;DHT22;35050;51.316;5.994;2023-08-07T04:41:27;13.60;99.90
49224;DHT22;35050;51.316;5.994;2023-08-07T04:43:53;13.60;99.90
49224;DHT22;35050;51.316;5.994;2023-08-07T04:46:18;13.60;99.90
49224;DHT22;35050;51.316;5.994;2023-08-07T04:48:44;13.70;99.90
49224;DHT22;35050;51.316;5.994;2023-08-07T04:51:09;13.70;99.90
49224;DHT22;35050;51.316;5.994;2023-08-07T04:53:35;13.70;99.90
49224;DHT22;35050;51.316;5.994;2023-08-07T04:56:01;13.70;99.90
49224;DHT22;35050;51.316;5.994;2023-08-07T04:58:26;13.80;99.90
49224;DHT22;35050;51.316;5.994;2023-08-07T05:00:58;13.70;99.90
49224;DHT22;35050;51.316;5.994;2023-08-07T05:03:25;13.80;99.90
49224;DHT22;35050;51.316;5.994;2023-08-07T05:05:58;13.80;99.90
49224;DHT22;35050;51.316;5.994;2023-08-07T05:08:23;13.80;99.90
49224;DHT22;35050;51.316;5.994;2023-08-07T05:10:49;13.80;99.90
49224;DHT22;35050;51.316;5.994;2023-08-07T05:13:14;13.90;99.90
49224;DHT22;35050;51.316;5.994;2023-08-07T05:15:40;13.80;99.90
49224;DHT22;35050;51.316;5.994;2023-08-07T05:18:06;13.90;99.90
49224;DHT22;35050;51.316;5.994;2023-08-07T05:20:32;13.90;99.90
49224;DHT22;35050;51.316;5.994;2023-08-07T05:22:57;13.90;99.90
49224;DHT22;35050;51.316;5.994;2023-08-07T05:25:23;13.90;99.90
49224;DHT22;35050;51.316;5.994;2023-08-07T05:27:49;13.90;99.90
49224;DHT22;35050;51.316;5.994;2023-08-07T05:30:14;13.90;99.90
49224;DHT22;35050;51.316;5.994;2023-08-07T05:32:40;13.90;99.90
49224;DHT22;35050;51.316;5.994;2023-08-07T05:35:07;13.90;99.90
49224;DHT22;35050;51.316;5.994;2023-08-07T05:37:33;14.00;99.90
49224;DHT22;35050;51.316;5.994;2023-08-07T05:39:59;13.90;99.90
49224;DHT22;35050;51.316;5.994;2023-08-07T05:42:25;13.90;99.90
49224;DHT22;35050;51.316;5.994;2023-08-07T05:44:50;13.90;99.90
49224;DHT22;35050;51.316;5.994;2023-08-07T05:47:16;13.90;99.90
49224;DHT22;35050;51.316;5.994;2023-08-07T05:49:42;13.90;99.90
49224;DHT22;35050;51.316;5.994;2023-08-07T05:52:07;13.80;99.90
49224;DHT22;35050;51.316;5.994;2023-08-07T05:54:33;13.80;99.90
49224;DHT22;35050;51.316;5.994;2023-08-07T05:56:59;13.80;99.90
49224;DHT22;35050;51.316;5.994;2023-08-07T05:59:24;13.80;99.90
49224;DHT22;35050;51.316;5.994;2023-08-07T06:01:50;13.80;99.90
49224;DHT22;35050;51.316;5.994;2023-08-07T06:04:16;13.80;99.90
49224;DHT22;35050;51.316;5.994;2023-08-07T06:06:42;13.80;99.90
49224;DHT22;35050;51.316;5.994;2023-08-07T06:09:08;13.80;99.90
49224;DHT22;35050;51.316;5.994;2023-08-07T06:11:34;13.90;99.90
49224;DHT22;35050;51.316;5.994;2023-08-07T06:14:00;13.80;99.90
49224;DHT22;35050;51.316;5.994;2023-08-07T06:16:26;13.80;99.90
49224;DHT22;35050;51.316;5.994;2023-08-07T06:18:53;13.70;99.90
49224;DHT22;35050;51.316;5.994;2023-08-07T06:21:18;13.70;99.90
49224;DHT22;35050;51.316;5.994;2023-08-07T06:23:45;13.70;99.90
49224;DHT22;35050;51.316;5.994;2023-08-07T06:26:11;13.70;99.90
49224;DHT22;35050;51.316;5.994;2023-08-07T06:28:36;13.70;99.90
49224;DHT22;35050;51.316;5.994;2023-08-07T06:31:04;13.70;99.90
49224;DHT22;35050;51.316;5.994;2023-08-07T06:33:30;13.70;99.90
49224;DHT22;35050;51.316;5.994;2023-08-07T06:35:57;13.70;99.90
49224;DHT22;35050;51.316;5.994;2023-08-07T06:38:23;13.70;99.90
49224;DHT22;35050;51.316;5.994;2023-08-07T06:40:48;13.80;99.90
49224;DHT22;35050;51.316;5.994;2023-08-07T06:43:14;13.80;99.90
49224;DHT22;35050;51.316;5.994;2023-08-07T06:45:39;13.90;99.90
49224;DHT22;35050;51.316;5.994;2023-08-07T06:48:05;13.90;99.90
49224;DHT22;35050;51.316;5.994;2023-08-07T06:50:31;13.90;99.90
49224;DHT22;35050;51.316;5.994;2023-08-07T06:52:56;14.00;99.90
49224;DHT22;35050;51.316;5.994;2023-08-07T06:55:22;14.00;99.90
49224;DHT22;35050;51.316;5.994;2023-08-07T06:57:48;14.00;99.90
49224;DHT22;35050;51.316;5.994;2023-08-07T07:00:14;14.10;99.90
49224;DHT22;35050;51.316;5.994;2023-08-07T07:02:40;14.20;99.90
49224;DHT22;35050;51.316;5.994;2023-08-07T07:05:06;14.20;99.90
49224;DHT22;35050;51.316;5.994;2023-08-07T07:07:31;14.40;99.90
49224;DHT22;35050;51.316;5.994;2023-08-07T07:09:57;14.40;99.90
49224;DHT22;35050;51.316;5.994;2023-08-07T07:12:26;14.30;99.90
49224;DHT22;35050;51.316;5.994;2023-08-07T07:14:52;14.50;99.90
49224;DHT22;35050;51.316;5.994;2023-08-07T07:17:18;14.50;99.90
49224;DHT22;35050;51.316;5.994;2023-08-07T07:19:44;14.60;99.90
49224;DHT22;35050;51.316;5.994;2023-08-07T07:22:09;14.60;99.90
49224;DHT22;35050;51.316;5.994;2023-08-07T07:24:35;14.70;99.90
49224;DHT22;35050;51.316;5.994;2023-08-07T07:27:01;14.80;99.90
49224;DHT22;35050;51.316;5.994;2023-08-07T07:29:26;14.90;99.90
49224;DHT22;35050;51.316;5.994;2023-08-07T07:31:52;15.00;99.90
49224;DHT22;35050;51.316;5.994;2023-08-07T07:34:19;15.00;99.90
49224;DHT22;35050;51.316;5.994;2023-08-07T07:36:44;15.10;99.90
49224;DHT22;35050;51.316;5.994;2023-08-07T07:39:10;15.10;99.90
49224;DHT22;35050;51.316;5.994;2023-08-07T07:41:36;15.20;99.90
49224;DHT22;35050;51.316;5.994;2023-08-07T07:44:02;15.10;99.90
49224;DHT22;35050;51.316;5.994;2023-08-07T07:46:28;15.30;99.90
49224;DHT22;35050;51.316;5.994;2023-08-07T07:48:54;15.30;99.90
49224;DHT22;35050;51.316;5.994;2023-08-07T07:51:21;15.50;99.90
49224;DHT22;35050;51.316;5.994;2023-08-07T07:53:47;15.50;99.90
49224;DHT22;35050;51.316;5.994;2023-08-07T07:56:12;15.40;99.90
49224;DHT22;35050;51.316;5.994;2023-08-07T07:58:38;15.30;99.90
49224;DHT22;35050;51.316;5.994;2023-08-07T08:01:06;15.20;99.90
49224;DHT22;35050;51.316;5.994;2023-08-07T08:03:32;15.10;99.90
49224;DHT22;35050;51.316;5.994;2023-08-07T08:05:58;15.10;99.90
49224;DHT22;35050;51.316;5.994;2023-08-07T08:08:23;15.20;99.90
49224;DHT22;35050;51.316;5.994;2023-08-07T08:10:49;15.10;99.90
49224;DHT22;35050;51.316;5.994;2023-08-07T08:13:16;15.20;99.90
49224;DHT22;35050;51.316;5.994;2023-08-07T08:15:42;15.20;99.90
49224;DHT22;35050;51.316;5.994;2023-08-07T08:18:08;15.30;99.90
49224;DHT22;35050;51.316;5.994;2023-08-07T08:20:34;15.20;99.90
49224;DHT22;35050;51.316;5.994;2023-08-07T08:22:59;15.10;99.90
49224;DHT22;35050;51.316;5.994;2023-08-07T08:25:25;15.10;99.90
49224;DHT22;35050;51.316;5.994;2023-08-07T08:27:51;15.20;99.90
49224;DHT22;35050;51.316;5.994;2023-08-07T08:30:16;15.40;99.90
49224;DHT22;35050;51.316;5.994;2023-08-07T08:32:43;15.30;99.90
49224;DHT22;35050;51.316;5.994;2023-08-07T08:35:09;15.30;99.90
49224;DHT22;35050;51.316;5.994;2023-08-07T08:37:35;15.60;99.90
49224;DHT22;35050;51.316;5.994;2023-08-07T08:40:00;15.70;99.90
49224;DHT22;35050;51.316;5.994;2023-08-07T08:42:26;15.50;99.90
49224;DHT22;35050;51.316;5.994;2023-08-07T08:44:54;15.30;99.90
49224;DHT22;35050;51.316;5.994;2023-08-07T08:47:25;15.20;99.90
49224;DHT22;35050;51.316;5.994;2023-08-07T08:50:15;15.30;99.90
49224;DHT22;35050;51.316;5.994;2023-08-07T08:52:43;15.60;99.90
49224;DHT22;35050;51.316;5.994;2023-08-07T08:55:11;15.80;99.90
49224;DHT22;35050;51.316;5.994;2023-08-07T08:57:38;16.10;99.90
49224;DHT22;35050;51.316;5.994;2023-08-07T09:00:08;16.10;99.90
49224;DHT22;35050;51.316;5.994;2023-08-07T09:02:46;16.50;99.90
49224;DHT22;35050;51.316;5.994;2023-08-07T09:05:13;16.50;99.90
49224;DHT22;35050;51.316;5.994;2023-08-07T09:07:39;16.70;99.90
49224;DHT22;35050;51.316;5.994;2023-08-07T09:10:05;16.90;99.90
49224;DHT22;35050;51.316;5.994;2023-08-07T09:12:32;17.10;99.90
49224;DHT22;35050;51.316;5.994;2023-08-07T09:15:02;17.30;99.90
49224;DHT22;35050;51.316;5.994;2023-08-07T09:17:29;17.60;99.90
49224;DHT22;35050;51.316;5.994;2023-08-07T09:19:57;17.80;99.90
49224;DHT22;35050;51.316;5.994;2023-08-07T09:22:23;18.00;99.90
49224;DHT22;35050;51.316;5.994;2023-08-07T09:24:49;18.10;99.90
49224;DHT22;35050;51.316;5.994;2023-08-07T09:27:15;18.30;99.90
49224;DHT22;35050;51.316;5.994;2023-08-07T09:29:41;18.50;99.90
49224;DHT22;35050;51.316;5.994;2023-08-07T09:32:11;18.50;99.90
49224;DHT22;35050;51.316;5.994;2023-08-07T09:34:42;18.50;99.90
49224;DHT22;35050;51.316;5.994;2023-08-07T09:37:10;18.80;99.90
49224;DHT22;35050;51.316;5.994;2023-08-07T09:39:37;18.60;99.90
49224;DHT22;35050;51.316;5.994;2023-08-07T09:42:03;18.60;99.90
49224;DHT22;35050;51.316;5.994;2023-08-07T09:44:36;19.20;99.90
49224;DHT22;35050;51.316;5.994;2023-08-07T09:47:12;19.20;99.90
49224;DHT22;35050;51.316;5.994;2023-08-07T09:49:39;19.40;99.90
49224;DHT22;35050;51.316;5.994;2023-08-07T09:52:06;19.30;99.90
49224;DHT22;35050;51.316;5.994;2023-08-07T09:54:33;19.60;99.90
49224;DHT22;35050;51.316;5.994;2023-08-07T09:57:01;19.60;99.90
49224;DHT22;35050;51.316;5.994;2023-08-07T09:59:27;19.60;99.90
49224;DHT22;35050;51.316;5.994;2023-08-07T10:01:54;20.00;99.90
49224;DHT22;35050;51.316;5.994;2023-08-07T10:04:21;19.20;99.90
49224;DHT22;35050;51.316;5.994;2023-08-07T10:06:48;18.70;99.90
49224;DHT22;35050;51.316;5.994;2023-08-07T10:09:14;18.70;99.90
49224;DHT22;35050;51.316;5.994;2023-08-07T10:11:40;18.60;99.90
49224;DHT22;35050;51.316;5.994;2023-08-07T10:14:06;18.90;99.90
49224;DHT22;35050;51.316;5.994;2023-08-07T10:16:33;19.80;99.90
49224;DHT22;35050;51.316;5.994;2023-08-07T10:19:05;19.90;99.90
49224;DHT22;35050;51.316;5.994;2023-08-07T10:21:31;19.60;99.90
49224;DHT22;35050;51.316;5.994;2023-08-07T10:23:58;19.10;99.90
49224;DHT22;35050;51.316;5.994;2023-08-07T10:26:25;18.80;99.90
49224;DHT22;35050;51.316;5.994;2023-08-07T10:28:52;18.70;99.90
49224;DHT22;35050;51.316;5.994;2023-08-07T10:31:20;19.20;99.90
49224;DHT22;35050;51.316;5.994;2023-08-07T10:33:47;19.70;99.90
49224;DHT22;35050;51.316;5.994;2023-08-07T10:36:16;19.60;99.90
49224;DHT22;35050;51.316;5.994;2023-08-07T10:38:42;19.30;99.90
49224;DHT22;35050;51.316;5.994;2023-08-07T10:41:09;19.30;99.90
49224;DHT22;35050;51.316;5.994;2023-08-07T10:43:40;19.20;99.90
49224;DHT22;35050;51.316;5.994;2023-08-07T10:46:08;19.10;99.90
49224;DHT22;35050;51.316;5.994;2023-08-07T10:48:44;19.00;99.90
49224;DHT22;35050;51.316;5.994;2023-08-07T10:51:17;19.00;99.90
49224;DHT22;35050;51.316;5.994;2023-08-07T10:53:48;19.20;99.90
49224;DHT22;35050;51.316;5.994;2023-08-07T10:56:33;19.70;99.90
49224;DHT22;35050;51.316;5.994;2023-08-07T10:59:10;20.20;99.90
49224;DHT22;35050;51.316;5.994;2023-08-07T11:01:43;20.80;99.90
49224;DHT22;35050;51.316;5.994;2023-08-07T11:04:13;20.80;99.90
49224;DHT22;35050;51.316;5.994;2023-08-07T11:06:41;20.90;99.90
49224;DHT22;35050;51.316;5.994;2023-08-07T11:09:08;21.30;99.90
49224;DHT22;35050;51.316;5.994;2023-08-07T11:11:46;21.70;99.90
49224;DHT22;35050;51.316;5.994;2023-08-07T11:16:40;21.60;99.00
49224;DHT22;35050;51.316;5.994;2023-08-07T11:19:06;21.50;99.40
49224;DHT22;35050;51.316;5.994;2023-08-07T11:21:32;21.00;97.80
49224;DHT22;35050;51.316;5.994;2023-08-07T11:23:58;21.00;98.00
49224;DHT22;35050;51.316;5.994;2023-08-07T11:26:24;21.20;98.20
49224;DHT22;35050;51.316;5.994;2023-08-07T11:28:54;21.60;97.40
49224;DHT22;35050;51.316;5.994;2023-08-07T11:31:19;21.40;96.10
49224;DHT22;35050;51.316;5.994;2023-08-07T11:33:45;21.50;97.80
49224;DHT22;35050;51.316;5.994;2023-08-07T11:36:12;21.90;96.40
49224;DHT22;35050;51.316;5.994;2023-08-07T11:38:42;22.40;97.00
49224;DHT22;35050;51.316;5.994;2023-08-07T11:41:09;22.80;97.20
49224;DHT22;35050;51.316;5.994;2023-08-07T11:43:36;22.90;96.00
49224;DHT22;35050;51.316;5.994;2023-08-07T11:46:04;22.30;96.70
49224;DHT22;35050;51.316;5.994;2023-08-07T11:48:31;21.40;97.10
49224;DHT22;35050;51.316;5.994;2023-08-07T11:50:58;21.30;97.30
49224;DHT22;35050;51.316;5.994;2023-08-07T11:53:25;22.00;96.80
49224;DHT22;35050;51.316;5.994;2023-08-07T11:55:53;22.40;97.00
49224;DHT22;35050;51.316;5.994;2023-08-07T11:58:20;22.60;95.70
49224;DHT22;35050;51.316;5.994;2023-08-07T12:00:46;22.30;96.00
49224;DHT22;35050;51.316;5.994;2023-08-07T12:03:29;22.60;96.00
49224;DHT22;35050;51.316;5.994;2023-08-07T12:05:58;22.20;95.70
49224;DHT22;35050;51.316;5.994;2023-08-07T12:08:25;23.00;94.80
49224;DHT22;35050;51.316;5.994;2023-08-07T12:10:56;23.20;95.70
49224;DHT22;35050;51.316;5.994;2023-08-07T12:13:25;22.90;95.20
49224;DHT22;35050;51.316;5.994;2023-08-07T12:15:55;22.40;95.70
49224;DHT22;35050;51.316;5.994;2023-08-07T12:18:22;22.20;95.60
49224;DHT22;35050;51.316;5.994;2023-08-07T12:20:52;23.40;97.10
49224;DHT22;35050;51.316;5.994;2023-08-07T12:23:20;23.40;97.40
49224;DHT22;35050;51.316;5.994;2023-08-07T12:25:46;23.70;95.20
49224;DHT22;35050;51.316;5.994;2023-08-07T12:28:12;23.70;94.80
49224;DHT22;35050;51.316;5.994;2023-08-07T12:30:38;24.10;94.80
49224;DHT22;35050;51.316;5.994;2023-08-07T12:33:04;23.80;95.40
49224;DHT22;35050;51.316;5.994;2023-08-07T12:35:30;24.10;94.80
49224;DHT22;35050;51.316;5.994;2023-08-07T12:37:56;24.30;95.20
49224;DHT22;35050;51.316;5.994;2023-08-07T12:40:22;23.60;94.90
49224;DHT22;35050;51.316;5.994;2023-08-07T12:42:49;22.80;95.00
49224;DHT22;35050;51.316;5.994;2023-08-07T12:45:15;22.80;96.50
49224;DHT22;35050;51.316;5.994;2023-08-07T12:47:42;22.70;95.90
49224;DHT22;35050;51.316;5.994;2023-08-07T12:50:08;22.60;94.20
49224;DHT22;35050;51.316;5.994;2023-08-07T12:52:35;23.40;96.30
49224;DHT22;35050;51.316;5.994;2023-08-07T12:55:00;22.70;96.40
49224;DHT22;35050;51.316;5.994;2023-08-07T12:57:26;23.00;97.00
49224;DHT22;35050;51.316;5.994;2023-08-07T12:59:52;22.30;96.50
49224;DHT22;35050;51.316;5.994;2023-08-07T13:02:17;22.30;97.60
49224;DHT22;35050;51.316;5.994;2023-08-07T13:04:43;22.20;97.70
49224;DHT22;35050;51.316;5.994;2023-08-07T13:07:09;22.60;97.50
49224;DHT22;35050;51.316;5.994;2023-08-07T13:09:37;22.80;98.20
49224;DHT22;35050;51.316;5.994;2023-08-07T13:12:04;22.90;98.80
49224;DHT22;35050;51.316;5.994;2023-08-07T13:14:30;22.70;98.30
49224;DHT22;35050;51.316;5.994;2023-08-07T13:16:56;23.20;99.90
49224;DHT22;35050;51.316;5.994;2023-08-07T13:19:21;23.20;98.90
49224;DHT22;35050;51.316;5.994;2023-08-07T13:21:47;23.90;99.70
49224;DHT22;35050;51.316;5.994;2023-08-07T13:24:12;23.50;98.20
49224;DHT22;35050;51.316;5.994;2023-08-07T13:26:38;22.90;98.00
49224;DHT22;35050;51.316;5.994;2023-08-07T13:29:10;22.90;98.40
49224;DHT22;35050;51.316;5.994;2023-08-07T13:31:36;23.10;99.20
49224;DHT22;35050;51.316;5.994;2023-08-07T13:34:01;23.60;97.60
49224;DHT22;35050;51.316;5.994;2023-08-07T13:36:33;23.30;97.20
49224;DHT22;35050;51.316;5.994;2023-08-07T13:38:59;22.40;97.90
49224;DHT22;35050;51.316;5.994;2023-08-07T13:41:26;22.20;98.60
49224;DHT22;35050;51.316;5.994;2023-08-07T13:43:51;22.00;99.50
49224;DHT22;35050;51.316;5.994;2023-08-07T13:46:17;21.20;99.90
49224;DHT22;35050;51.316;5.994;2023-08-07T13:48:44;21.00;99.90
49224;DHT22;35050;51.316;5.994;2023-08-07T13:51:10;20.70;99.90
49224;DHT22;35050;51.316;5.994;2023-08-07T13:53:35;21.20;99.90
49224;DHT22;35050;51.316;5.994;2023-08-07T13:56:01;21.30;99.90
49224;DHT22;35050;51.316;5.994;2023-08-07T13:58:27;21.20;99.90
49224;DHT22;35050;51.316;5.994;2023-08-07T14:00:53;20.80;99.90
49224;DHT22;35050;51.316;5.994;2023-08-07T14:03:19;21.00;99.90
49224;DHT22;35050;51.316;5.994;2023-08-07T14:05:44;20.50;99.90
49224;DHT22;35050;51.316;5.994;2023-08-07T14:08:10;20.40;99.90
49224;DHT22;35050;51.316;5.994;2023-08-07T14:10:36;20.50;99.90
49224;DHT22;35050;51.316;5.994;2023-08-07T14:13:04;20.40;99.90
49224;DHT22;35050;51.316;5.994;2023-08-07T14:15:31;20.60;99.90
49224;DHT22;35050;51.316;5.994;2023-08-07T14:17:56;21.00;99.90
49224;DHT22;35050;51.316;5.994;2023-08-07T14:20:22;21.80;99.90
49224;DHT22;35050;51.316;5.994;2023-08-07T14:22:49;21.60;99.90
49224;DHT22;35050;51.316;5.994;2023-08-07T14:25:15;21.40;99.90
49224;DHT22;35050;51.316;5.994;2023-08-07T14:27:40;21.20;99.90
49224;DHT22;35050;51.316;5.994;2023-08-07T14:30:07;21.00;99.90
49224;DHT22;35050;51.316;5.994;2023-08-07T14:32:32;20.70;99.90
49224;DHT22;35050;51.316;5.994;2023-08-07T14:34:58;21.10;99.90
49224;DHT22;35050;51.316;5.994;2023-08-07T14:37:23;21.00;99.90
49224;DHT22;35050;51.316;5.994;2023-08-07T14:39:49;21.50;99.90
49224;DHT22;35050;51.316;5.994;2023-08-07T14:42:15;21.90;99.90
49224;DHT22;35050;51.316;5.994;2023-08-07T14:44:41;22.40;99.90
49224;DHT22;35050;51.316;5.994;2023-08-07T14:47:07;22.70;99.90
49224;DHT22;35050;51.316;5.994;2023-08-07T14:49:32;22.70;99.90
49224;DHT22;35050;51.316;5.994;2023-08-07T14:51:58;22.80;99.90
49224;DHT22;35050;51.316;5.994;2023-08-07T14:54:24;22.40;99.40
49224;DHT22;35050;51.316;5.994;2023-08-07T14:56:49;22.60;99.90
49224;DHT22;35050;51.316;5.994;2023-08-07T14:59:15;22.90;99.90
49224;DHT22;35050;51.316;5.994;2023-08-07T15:01:41;23.00;99.00
49224;DHT22;35050;51.316;5.994;2023-08-07T15:04:06;22.80;99.60
49224;DHT22;35050;51.316;5.994;2023-08-07T15:06:32;22.30;99.50
49224;DHT22;35050;51.316;5.994;2023-08-07T15:08:58;21.90;99.90
49224;DHT22;35050;51.316;5.994;2023-08-07T15:11:24;21.40;99.90
49224;DHT22;35050;51.316;5.994;2023-08-07T15:13:50;21.30;99.90
49224;DHT22;35050;51.316;5.994;2023-08-07T15:16:15;21.20;99.90
49224;DHT22;35050;51.316;5.994;2023-08-07T15:18:41;21.40;99.90
49224;DHT22;35050;51.316;5.994;2023-08-07T15:21:07;21.50;99.90
49224;DHT22;35050;51.316;5.994;2023-08-07T15:23:32;21.50;99.90
49224;DHT22;35050;51.316;5.994;2023-08-07T15:25:58;21.30;99.90
49224;DHT22;35050;51.316;5.994;2023-08-07T15:28:25;22.00;99.90
49224;DHT22;35050;51.316;5.994;2023-08-07T15:30:51;22.70;99.90